createdAt,value
2023-03-22T00:00:24.020Z,0
2023-03-22T00:01:23.354Z,0
2023-03-22T00:02:22.870Z,0
2023-03-22T00:03:23.042Z,0
2023-03-22T00:04:22.615Z,0
2023-03-22T00:05:22.636Z,0
2023-03-22T00:06:22.882Z,0
2023-03-22T00:07:23.225Z,0
2023-03-22T00:08:22.653Z,0
2023-03-22T00:09:23.240Z,0
2023-03-22T00:10:22.462Z,0
2023-03-22T00:11:22.696Z,0
2023-03-22T00:12:22.679Z,0
2023-03-22T00:13:22.536Z,0
2023-03-22T00:14:22.338Z,0
2023-03-22T00:15:22.188Z,0
2023-03-22T00:16:22.617Z,0
2023-03-22T00:17:22.985Z,0
2023-03-22T00:18:22.171Z,0
2023-03-22T00:19:22.309Z,0
2023-03-22T00:20:22.939Z,0
2023-03-22T00:21:22.934Z,0
2023-03-22T00:22:22.806Z,0
2023-03-22T00:23:22.471Z,0
2023-03-22T00:24:22.631Z,0
2023-03-22T00:25:22.936Z,0
2023-03-22T00:26:22.775Z,0
2023-03-22T00:27:22.488Z,0
2023-03-22T00:28:22.547Z,0
2023-03-22T00:29:22.593Z,0
2023-03-22T00:30:23.017Z,0
2023-03-22T00:31:22.670Z,0
2023-03-22T00:32:22.575Z,0
2023-03-22T00:33:22.710Z,0
2023-03-22T00:34:23.232Z,0
2023-03-22T00:35:23.097Z,0
2023-03-22T00:36:22.403Z,0
2023-03-22T00:37:22.770Z,0
2023-03-22T00:38:29.939Z,0
2023-03-22T00:39:22.610Z,0
2023-03-22T00:40:22.854Z,0
2023-03-22T00:41:22.674Z,0
2023-03-22T00:42:22.226Z,0
2023-03-22T00:43:22.585Z,0
2023-03-22T00:44:22.820Z,0
2023-03-22T00:45:22.339Z,0
2023-03-22T00:46:22.079Z,0
2023-03-22T00:47:22.636Z,0
2023-03-22T00:48:22.629Z,0
2023-03-22T00:49:22.291Z,0
2023-03-22T00:50:23.060Z,0
2023-03-22T00:51:22.785Z,0
2023-03-22T00:52:22.738Z,0
2023-03-22T00:53:22.392Z,0
2023-03-22T00:54:22.253Z,0
2023-03-22T00:55:22.794Z,0
2023-03-22T00:56:22.207Z,0
2023-03-22T00:57:22.823Z,0
2023-03-22T00:58:22.054Z,0
2023-03-22T00:59:22.622Z,0
2023-03-22T01:00:23.650Z,0
2023-03-22T01:01:25.857Z,0
2023-03-22T01:03:22.503Z,0
2023-03-22T01:04:22.108Z,0
2023-03-22T01:05:22.506Z,0
2023-03-22T01:06:22.482Z,0
2023-03-22T01:07:27.627Z,0
2023-03-22T01:08:22.147Z,0
2023-03-22T01:09:22.940Z,0
2023-03-22T01:10:22.367Z,0
2023-03-22T01:11:21.872Z,0
2023-03-22T01:12:22.206Z,0
2023-03-22T01:13:22.489Z,0
2023-03-22T01:14:22.655Z,0
2023-03-22T01:15:22.755Z,0
2023-03-22T01:16:22.568Z,0
2023-03-22T01:17:22.164Z,0
2023-03-22T01:18:23.021Z,0
2023-03-22T01:19:22.514Z,0
2023-03-22T01:20:22.359Z,0
2023-03-22T01:21:22.157Z,0
2023-03-22T01:22:22.392Z,0
2023-03-22T01:23:22.179Z,0
2023-03-22T01:24:22.941Z,0
2023-03-22T01:25:22.546Z,0
2023-03-22T01:26:22.023Z,0
2023-03-22T01:27:22.701Z,0
2023-03-22T01:28:22.139Z,0
2023-03-22T01:29:22.748Z,0
2023-03-22T01:30:23.151Z,0
2023-03-22T01:31:22.611Z,0
2023-03-22T01:32:22.435Z,0
2023-03-22T01:33:21.658Z,0
2023-03-22T01:34:22.420Z,0
2023-03-22T01:35:22.721Z,0
2023-03-22T01:36:22.148Z,0
2023-03-22T01:37:36.662Z,0
2023-03-22T01:38:22.331Z,0
2023-03-22T01:39:22.263Z,0
2023-03-22T01:40:22.190Z,0
2023-03-22T01:41:22.353Z,0
2023-03-22T01:42:22.190Z,0
2023-03-22T01:43:22.506Z,0
2023-03-22T01:44:22.262Z,0
2023-03-22T01:45:22.560Z,0
2023-03-22T01:46:22.072Z,0
2023-03-22T01:47:22.705Z,0
2023-03-22T01:48:22.228Z,0
2023-03-22T01:49:22.041Z,0
2023-03-22T01:50:23.039Z,0
2023-03-22T01:51:22.442Z,0
2023-03-22T01:52:22.078Z,0
2023-03-22T01:53:22.258Z,0
2023-03-22T01:54:22.649Z,0
2023-03-22T01:55:21.937Z,0
2023-03-22T01:56:22.170Z,0
2023-03-22T01:57:22.852Z,0
2023-03-22T01:58:22.051Z,0
2023-03-22T01:59:22.550Z,0
2023-03-22T02:00:23.054Z,0
2023-03-22T02:01:22.957Z,0
2023-03-22T02:02:22.327Z,0
2023-03-22T02:03:22.346Z,0
2023-03-22T02:04:22.376Z,0
2023-03-22T02:05:22.538Z,0
2023-03-22T02:06:22.654Z,0
2023-03-22T02:07:22.727Z,0
2023-03-22T02:08:22.438Z,0
2023-03-22T02:09:22.570Z,0
2023-03-22T02:10:22.507Z,0
2023-03-22T02:11:22.604Z,0
2023-03-22T02:12:22.138Z,0
2023-03-22T02:13:22.749Z,0
2023-03-22T02:14:23.386Z,0
2023-03-22T02:16:24.173Z,0
2023-03-22T02:17:22.513Z,0
2023-03-22T02:18:22.424Z,0
2023-03-22T02:19:21.932Z,0
2023-03-22T02:20:22.420Z,0
2023-03-22T02:21:22.336Z,0
2023-03-22T02:22:22.379Z,0
2023-03-22T02:23:22.546Z,0
2023-03-22T02:24:22.298Z,0
2023-03-22T02:25:22.505Z,0
2023-03-22T02:26:22.053Z,0
2023-03-22T02:27:22.243Z,0
2023-03-22T02:28:22.098Z,0
2023-03-22T02:29:22.590Z,0
2023-03-22T02:30:21.943Z,0
2023-03-22T02:31:22.739Z,0
2023-03-22T02:32:22.080Z,0
2023-03-22T02:33:22.662Z,0
2023-03-22T02:34:22.401Z,0
2023-03-22T02:35:22.387Z,0
2023-03-22T02:36:22.466Z,0
2023-03-22T02:37:22.706Z,0
2023-03-22T02:38:21.960Z,0
2023-03-22T02:39:22.514Z,0
2023-03-22T02:40:22.469Z,0
2023-03-22T02:41:21.983Z,0
2023-03-22T02:42:22.782Z,0
2023-03-22T02:43:21.859Z,0
2023-03-22T02:44:22.377Z,0
2023-03-22T02:45:22.786Z,0
2023-03-22T02:46:22.545Z,0
2023-03-22T02:47:22.469Z,0
2023-03-22T02:48:22.335Z,0
2023-03-22T02:49:21.881Z,0
2023-03-22T02:50:22.972Z,0
2023-03-22T02:51:21.964Z,0
2023-03-22T02:52:22.867Z,0
2023-03-22T02:53:22.200Z,0
2023-03-22T02:54:22.349Z,0
2023-03-22T02:55:22.016Z,0
2023-03-22T02:56:22.663Z,0
2023-03-22T02:57:21.937Z,0
2023-03-22T02:58:21.782Z,0
2023-03-22T02:59:22.018Z,0
2023-03-22T03:00:22.955Z,0
2023-03-22T03:01:22.692Z,0
2023-03-22T03:02:22.280Z,0
2023-03-22T03:03:22.574Z,0
2023-03-22T03:04:22.387Z,0
2023-03-22T03:05:22.495Z,0
2023-03-22T03:06:23.035Z,0
2023-03-22T03:07:22.881Z,0
2023-03-22T03:08:22.365Z,0
2023-03-22T03:09:23.112Z,0
2023-03-22T03:10:22.661Z,0
2023-03-22T03:11:21.922Z,0
2023-03-22T03:12:21.976Z,0
2023-03-22T03:13:22.260Z,0
2023-03-22T03:14:22.571Z,0
2023-03-22T03:15:22.654Z,0
2023-03-22T03:16:21.776Z,0
2023-03-22T03:17:21.985Z,0
2023-03-22T03:18:21.935Z,0
2023-03-22T03:19:22.089Z,0.109
2023-03-22T03:20:23.034Z,0
2023-03-22T03:21:21.948Z,0
2023-03-22T03:22:21.959Z,0
2023-03-22T03:23:22.064Z,0
2023-03-22T03:24:22.444Z,0
2023-03-22T03:25:22.089Z,0
2023-03-22T03:26:22.362Z,0
2023-03-22T03:27:22.498Z,0
2023-03-22T03:28:22.440Z,0
2023-03-22T03:29:23.077Z,0
2023-03-22T03:30:22.792Z,0
2023-03-22T03:31:22.520Z,0
2023-03-22T03:32:22.003Z,0
2023-03-22T03:33:21.946Z,0
2023-03-22T03:34:22.211Z,0
2023-03-22T03:35:22.936Z,0
2023-03-22T03:36:22.581Z,0
2023-03-22T03:37:22.194Z,0
2023-03-22T03:38:21.925Z,0
2023-03-22T03:39:22.128Z,0
2023-03-22T03:40:22.431Z,0
2023-03-22T03:41:21.851Z,0
2023-03-22T03:42:21.920Z,0
2023-03-22T03:43:22.096Z,0
2023-03-22T03:44:22.124Z,0
2023-03-22T03:45:22.338Z,0
2023-03-22T03:46:22.230Z,0
2023-03-22T03:47:22.507Z,0
2023-03-22T03:48:21.951Z,0
2023-03-22T03:49:22.053Z,0
2023-03-22T03:50:22.340Z,0
2023-03-22T03:51:22.552Z,0
2023-03-22T03:52:22.088Z,0
2023-03-22T03:53:22.233Z,0
2023-03-22T03:54:36.497Z,0
2023-03-22T03:55:22.334Z,0.109
2023-03-22T03:56:22.500Z,0.109
2023-03-22T03:57:21.920Z,0
2023-03-22T03:58:21.976Z,0.109
2023-03-22T03:59:22.841Z,0.109
2023-03-22T04:00:37.237Z,0.560
2023-03-22T04:01:22.740Z,0.109
2023-03-22T04:02:22.871Z,0.219
2023-03-22T04:03:22.522Z,0
2023-03-22T04:04:22.693Z,0
2023-03-22T04:05:22.418Z,0.109
2023-03-22T04:06:22.459Z,0.340
2023-03-22T04:07:21.751Z,0
2023-03-22T04:08:22.107Z,0.109
2023-03-22T04:09:22.469Z,0
2023-03-22T04:10:23.220Z,0.109
2023-03-22T04:11:22.051Z,0.109
2023-03-22T04:12:22.481Z,0.109
2023-03-22T04:13:22.573Z,0
2023-03-22T04:14:21.951Z,0.109
2023-03-22T04:15:22.494Z,0
2023-03-22T04:16:22.388Z,0
2023-03-22T04:17:22.526Z,0
2023-03-22T04:18:21.948Z,0.219
2023-03-22T04:19:22.923Z,0.109
2023-03-22T04:20:44.664Z,0
2023-03-22T04:21:22.440Z,0
2023-03-22T04:22:22.266Z,0.109
2023-03-22T04:23:22.845Z,0.109
2023-03-22T04:24:23.070Z,0.109
2023-03-22T04:25:22.691Z,0
2023-03-22T04:26:22.268Z,0
2023-03-22T04:27:22.555Z,0.109
2023-03-22T04:28:22.073Z,0
2023-03-22T04:29:22.423Z,0.109
2023-03-22T04:30:22.147Z,0.340
2023-03-22T04:31:22.453Z,0.219
2023-03-22T04:32:22.037Z,0.680
2023-03-22T04:33:23.186Z,0.109
2023-03-22T04:34:22.519Z,0.109
2023-03-22T04:35:22.280Z,0
2023-03-22T04:36:22.883Z,0
2023-03-22T04:37:22.317Z,0.239
2023-03-22T04:38:21.981Z,0.200
2023-03-22T04:39:22.636Z,0.109
2023-03-22T04:40:22.543Z,0.560
2023-03-22T04:41:22.870Z,0.239
2023-03-22T04:42:22.160Z,0.560
2023-03-22T04:43:22.613Z,0.200
2023-03-22T04:44:22.416Z,0.239
2023-03-22T04:45:22.678Z,0.610
2023-03-22T04:46:22.902Z,0.560
2023-03-22T04:47:22.537Z,0.219
2023-03-22T04:48:22.084Z,0.340
2023-03-22T04:49:22.545Z,0.449
2023-03-22T04:50:22.889Z,0.219
2023-03-22T04:51:22.161Z,0.109
2023-03-22T04:52:22.451Z,0.109
2023-03-22T04:53:21.820Z,0
2023-03-22T04:54:22.650Z,0
2023-03-22T04:55:22.307Z,0
2023-03-22T04:56:22.386Z,13600
2023-03-22T04:57:21.883Z,13600
2023-03-22T04:58:22.166Z,0
2023-03-22T04:59:22.413Z,0
2023-03-22T05:00:24.077Z,0
2023-03-22T05:01:23.081Z,13600
2023-03-22T05:02:22.958Z,13600
2023-03-22T05:03:22.696Z,13600
2023-03-22T05:04:22.245Z,0
2023-03-22T05:05:22.785Z,0.050
2023-03-22T05:06:22.864Z,0
2023-03-22T05:07:22.316Z,0
2023-03-22T05:08:21.846Z,0.680
2023-03-22T05:09:23.575Z,0.519
2023-03-22T05:10:22.437Z,0.670
2023-03-22T05:11:21.949Z,1.330
2023-03-22T05:12:22.288Z,1.919
2023-03-22T05:13:22.153Z,2.539
2023-03-22T05:14:22.006Z,2.740
2023-03-22T05:15:23.252Z,3.400
2023-03-22T05:16:21.985Z,4.269
2023-03-22T05:17:22.310Z,5.75
2023-03-22T05:18:22.085Z,7
2023-03-22T05:19:22.660Z,8.689
2023-03-22T05:20:22.559Z,10.60
2023-03-22T05:21:22.318Z,12.72
2023-03-22T05:22:22.757Z,14.81
2023-03-22T05:23:21.994Z,17.39
2023-03-22T05:24:22.532Z,19.79
2023-03-22T05:25:22.583Z,23.10
2023-03-22T05:26:22.586Z,26.5
2023-03-22T05:27:22.481Z,30.10
2023-03-22T05:28:21.719Z,33.29
2023-03-22T05:29:22.249Z,35.83
2023-03-22T05:30:22.933Z,38.13
2023-03-22T05:31:22.401Z,43
2023-03-22T05:32:22.597Z,48
2023-03-22T05:33:22.471Z,51.59
2023-03-22T05:34:22.743Z,55.20
2023-03-22T05:35:22.423Z,61.5
2023-03-22T05:36:22.297Z,68.90
2023-03-22T05:37:22.727Z,76.5
2023-03-22T05:38:22.473Z,89
2023-03-22T05:39:22.415Z,107
2023-03-22T05:40:22.783Z,126
2023-03-22T05:41:22.790Z,148
2023-03-22T05:42:22.153Z,173
2023-03-22T05:43:21.763Z,201
2023-03-22T05:44:22.273Z,230
2023-03-22T05:45:23.150Z,258
2023-03-22T05:46:23.051Z,287
2023-03-22T05:47:22.599Z,318
2023-03-22T05:48:22.411Z,340
2023-03-22T05:49:22.161Z,382
2023-03-22T05:50:22.704Z,410
2023-03-22T05:51:22.815Z,440
2023-03-22T05:52:22.450Z,481
2023-03-22T05:53:22.299Z,514
2023-03-22T05:54:23.277Z,540
2023-03-22T05:55:22.493Z,580
2023-03-22T05:56:22.316Z,610
2023-03-22T05:57:22.173Z,632
2023-03-22T05:58:22.909Z,651
2023-03-22T05:59:22.798Z,680
2023-03-22T06:00:23.920Z,698
2023-03-22T06:01:22.852Z,726
2023-03-22T06:02:22.776Z,743
2023-03-22T06:03:22.802Z,770
2023-03-22T06:04:23.070Z,791.7
2023-03-22T06:05:22.374Z,811
2023-03-22T06:06:22.286Z,827
2023-03-22T06:07:22.749Z,860
2023-03-22T06:08:23.715Z,900
2023-03-22T06:09:28.320Z,925
2023-03-22T06:10:23.048Z,936
2023-03-22T06:11:22.707Z,955
2023-03-22T06:12:22.388Z,980
2023-03-22T06:13:22.489Z,1015
2023-03-22T06:14:22.949Z,1040
2023-03-22T06:15:23.019Z,1080
2023-03-22T06:16:23.143Z,1150
2023-03-22T06:17:22.337Z,1188
2023-03-22T06:18:22.427Z,1190
2023-03-22T06:19:22.722Z,1223.
2023-03-22T06:20:22.772Z,1242
2023-03-22T06:21:22.565Z,1253
2023-03-22T06:22:22.366Z,1240
2023-03-22T06:23:22.413Z,1290
2023-03-22T06:24:22.406Z,1311
2023-03-22T06:25:22.470Z,1317
2023-03-22T06:26:22.514Z,1270
2023-03-22T06:27:22.956Z,1264
2023-03-22T06:28:22.253Z,1290
2023-03-22T06:29:22.655Z,1350
2023-03-22T06:30:23.135Z,1400
2023-03-22T06:31:22.845Z,1443
2023-03-22T06:32:22.957Z,1470
2023-03-22T06:33:23.428Z,1469
2023-03-22T06:34:23.306Z,1420
2023-03-22T06:35:41.162Z,1370
2023-03-22T06:36:22.861Z,1440
2023-03-22T06:37:23.271Z,1500
2023-03-22T06:38:22.713Z,1523
2023-03-22T06:39:22.705Z,1510
2023-03-22T06:40:22.672Z,1480
2023-03-22T06:41:22.314Z,1452
2023-03-22T06:42:23.181Z,1467
2023-03-22T06:43:22.773Z,1489
2023-03-22T06:44:22.796Z,1460
2023-03-22T06:45:23.341Z,1410
2023-03-22T06:46:22.845Z,1406
2023-03-22T06:47:22.926Z,1440
2023-03-22T06:48:22.846Z,1500
2023-03-22T06:49:22.771Z,1600
2023-03-22T06:50:23.820Z,1400
2023-03-22T06:51:23.918Z,1300
2023-03-22T06:52:22.955Z,1300
2023-03-22T06:53:23.715Z,1500
2023-03-22T06:54:23.726Z,1445
2023-03-22T06:55:22.832Z,1400
2023-03-22T06:56:23.177Z,1545
2023-03-22T06:57:22.748Z,1570
2023-03-22T06:58:23.151Z,1620
2023-03-22T07:00:26.079Z,1640
2023-03-22T07:01:23.423Z,1600
2023-03-22T07:02:22.966Z,1800
2023-03-22T07:03:22.392Z,1860
2023-03-22T07:04:23.078Z,1760
2023-03-22T07:05:22.714Z,1716
2023-03-22T07:06:22.930Z,1700
2023-03-22T07:07:23.112Z,1800
2023-03-22T07:08:22.296Z,1800
2023-03-22T07:09:22.401Z,1900
2023-03-22T07:10:22.496Z,2100
2023-03-22T07:11:22.960Z,2000
2023-03-22T07:12:22.938Z,2090
2023-03-22T07:13:22.687Z,2200
2023-03-22T07:14:22.750Z,2300
2023-03-22T07:15:23.259Z,2400
2023-03-22T07:16:22.810Z,2482
2023-03-22T07:17:22.697Z,2494
2023-03-22T07:18:23.580Z,2500
2023-03-22T07:19:23.443Z,0
2023-03-22T07:20:22.875Z,2000
2023-03-22T07:21:23.005Z,3000
2023-03-22T07:22:22.910Z,3000
2023-03-22T07:23:22.617Z,0
2023-03-22T07:24:22.659Z,0
2023-03-22T07:25:22.877Z,0
2023-03-22T07:26:23.920Z,2700
2023-03-22T07:27:23.267Z,3000
2023-03-22T07:28:22.833Z,3000
2023-03-22T07:29:23.060Z,4000
2023-03-22T07:30:23.822Z,4000
2023-03-22T07:31:23.033Z,3000
2023-03-22T07:32:22.980Z,0
2023-03-22T07:33:23.035Z,0
2023-03-22T07:34:22.776Z,3290
2023-03-22T07:35:26.294Z,3000
2023-03-22T07:36:22.563Z,0
2023-03-22T07:37:23.208Z,0
2023-03-22T07:38:22.944Z,5000
2023-03-22T07:39:22.913Z,0
2023-03-22T07:40:22.999Z,0
2023-03-22T07:41:22.479Z,0
2023-03-22T07:42:22.908Z,3000
2023-03-22T07:43:22.494Z,3200
2023-03-22T07:44:22.471Z,2900
2023-03-22T07:45:22.879Z,2600
2023-03-22T07:46:23.136Z,2630
2023-03-22T07:47:39.467Z,2690
2023-03-22T07:48:23.226Z,2710
2023-03-22T07:49:22.985Z,2600
2023-03-22T07:50:23.277Z,2598
2023-03-22T07:51:23.577Z,2620
2023-03-22T07:52:23.325Z,2660
2023-03-22T07:53:23.067Z,2720
2023-03-22T07:54:33.565Z,2790
2023-03-22T07:55:22.466Z,2860
2023-03-22T07:56:23.077Z,2930
2023-03-22T07:57:22.865Z,3000
2023-03-22T07:58:22.614Z,3070
2023-03-22T07:59:22.971Z,3200
2023-03-22T08:00:24.996Z,3400
2023-03-22T08:01:23.159Z,3600
2023-03-22T08:02:23.187Z,3800
2023-03-22T08:03:22.578Z,3970
2023-03-22T08:04:22.781Z,4000
2023-03-22T08:05:23.261Z,4000
2023-03-22T08:06:22.881Z,4000
2023-03-22T08:07:22.977Z,5100
2023-03-22T08:08:22.792Z,5200
2023-03-22T08:09:22.652Z,5400
2023-03-22T08:10:23.849Z,5300
2023-03-22T08:11:22.692Z,5300
2023-03-22T08:12:23.020Z,5500
2023-03-22T08:13:22.541Z,5700
2023-03-22T08:14:34.087Z,5800
2023-03-22T08:15:23.596Z,6000
2023-03-22T08:16:23.159Z,6000
2023-03-22T08:17:23.604Z,5990
2023-03-22T08:18:23.194Z,6040
2023-03-22T08:19:23.212Z,5000
2023-03-22T08:20:23.611Z,0
2023-03-22T08:21:23.024Z,4600
2023-03-22T08:22:22.966Z,4000
2023-03-22T08:23:38.482Z,4300
2023-03-22T08:24:28.474Z,4200
2023-03-22T08:25:23.144Z,4070
2023-03-22T08:26:28.424Z,4090
2023-03-22T08:27:22.705Z,4000
2023-03-22T08:28:22.915Z,4120
2023-03-22T08:29:23.812Z,4300
2023-03-22T08:30:23.802Z,4000
2023-03-22T08:31:23.215Z,4000
2023-03-22T08:32:22.711Z,5400
2023-03-22T08:33:22.740Z,6000
2023-03-22T08:34:23.276Z,6000
2023-03-22T08:35:22.779Z,5700
2023-03-22T08:36:23.849Z,5500
2023-03-22T08:37:24.325Z,5800
2023-03-22T08:38:22.867Z,5900
2023-03-22T08:39:24.742Z,5900
2023-03-22T08:40:23.439Z,5800
2023-03-22T08:41:23.003Z,6100
2023-03-22T08:42:22.866Z,6000
2023-03-22T08:43:23.425Z,6500
2023-03-22T08:44:23.751Z,6000
2023-03-22T08:45:22.970Z,5000
2023-03-22T08:46:23.439Z,5100
2023-03-22T08:47:22.557Z,4900
2023-03-22T08:48:22.740Z,4810
2023-03-22T08:49:23.445Z,4770
2023-03-22T08:50:23.475Z,4724
2023-03-22T08:51:22.660Z,4703
2023-03-22T08:52:23.268Z,4000
2023-03-22T08:53:23.059Z,5000
2023-03-22T08:54:23.334Z,4700
2023-03-22T08:55:22.989Z,4824
2023-03-22T08:56:22.987Z,4700
2023-03-22T08:57:23.253Z,4730
2023-03-22T08:58:22.832Z,4600
2023-03-22T08:59:23.244Z,4500
2023-03-22T09:00:24.524Z,4600
2023-03-22T09:01:23.410Z,4600
2023-03-22T09:02:22.911Z,4100
2023-03-22T09:03:23.850Z,4060
2023-03-22T09:04:23.952Z,3980
2023-03-22T09:05:23.787Z,3942
2023-03-22T09:06:23.220Z,3941.
2023-03-22T09:07:22.849Z,3938
2023-03-22T09:08:22.870Z,3943
2023-03-22T09:09:23.117Z,3920
2023-03-22T09:10:23.448Z,3900
2023-03-22T09:11:23.959Z,3890
2023-03-22T09:12:22.781Z,3947
2023-03-22T09:13:22.766Z,3960
2023-03-22T09:14:23.122Z,3963
2023-03-22T09:15:23.376Z,3918
2023-03-22T09:17:25.779Z,4040
2023-03-22T09:18:23.086Z,4100
2023-03-22T09:19:23.141Z,4250
2023-03-22T09:20:23.705Z,4300
2023-03-22T09:21:23.293Z,4500
2023-03-22T09:22:23.072Z,4600
2023-03-22T09:23:22.899Z,4800
2023-03-22T09:24:23.619Z,5000
2023-03-22T09:25:24.100Z,0
2023-03-22T09:26:23.067Z,0
2023-03-22T09:27:22.627Z,6200
2023-03-22T09:28:22.743Z,6000
2023-03-22T09:29:23.816Z,6380
2023-03-22T09:30:23.687Z,6000
2023-03-22T09:31:23.608Z,6270
2023-03-22T09:32:23.064Z,6240
2023-03-22T09:33:23.123Z,6100
2023-03-22T09:34:24.356Z,6090
2023-03-22T09:35:23.905Z,6000
2023-03-22T09:36:23.698Z,6130
2023-03-22T09:37:23.518Z,6160
2023-03-22T09:38:23.359Z,6200
2023-03-22T09:39:23.450Z,6000
2023-03-22T09:40:23.476Z,7000
2023-03-22T09:41:22.642Z,7000
2023-03-22T09:42:23.200Z,8000
2023-03-22T09:43:22.748Z,8000
2023-03-22T09:44:23.448Z,0
2023-03-22T09:45:23.712Z,7000
2023-03-22T09:46:22.989Z,6000
2023-03-22T09:47:24.467Z,6000
2023-03-22T09:48:23.355Z,5900
2023-03-22T09:49:23.803Z,6000
2023-03-22T09:50:22.899Z,6000
2023-03-22T09:51:23.427Z,6000
2023-03-22T09:52:23.076Z,6000
2023-03-22T09:53:22.969Z,6000
2023-03-22T09:54:23.331Z,6000
2023-03-22T09:55:23.133Z,0
2023-03-22T09:56:23.366Z,0
2023-03-22T09:57:23.725Z,0
2023-03-22T09:58:23.001Z,0
2023-03-22T09:59:23.390Z,6000
2023-03-22T10:00:24.482Z,5900
2023-03-22T10:01:24.008Z,6000
2023-03-22T10:02:23.696Z,6000
2023-03-22T10:03:23.648Z,6000
2023-03-22T10:05:25.916Z,8000
2023-03-22T10:06:22.774Z,0
2023-03-22T10:07:22.408Z,9000
2023-03-22T10:08:22.719Z,0
2023-03-22T10:09:23.833Z,6000
2023-03-22T10:10:23.075Z,6000
2023-03-22T10:11:23.124Z,0
2023-03-22T10:12:23.269Z,7000
2023-03-22T10:13:23.202Z,6000
2023-03-22T10:14:23.848Z,6100
2023-03-22T10:15:23.807Z,6000
2023-03-22T10:16:23.176Z,6000
2023-03-22T10:17:23.297Z,7000
2023-03-22T10:18:23.812Z,7400
2023-03-22T10:19:23.241Z,7000
2023-03-22T10:20:23.967Z,0
2023-03-22T10:21:23.754Z,0
2023-03-22T10:22:23.101Z,8000
2023-03-22T10:23:23.343Z,8000
2023-03-22T10:24:24.284Z,0
2023-03-22T10:25:24.211Z,7000
2023-03-22T10:26:23.333Z,7000
2023-03-22T10:27:23.419Z,7000
2023-03-22T10:28:23.893Z,0
2023-03-22T10:29:23.114Z,0
2023-03-22T10:30:24.132Z,7000
2023-03-22T10:31:23.569Z,7000
2023-03-22T10:32:23.759Z,7000
2023-03-22T10:33:24.038Z,7000
2023-03-22T10:34:23.590Z,7000
2023-03-22T10:35:23.302Z,7000
2023-03-22T10:36:23.679Z,7500
2023-03-22T10:37:23.893Z,7000
2023-03-22T10:38:23.382Z,7000
2023-03-22T10:39:23.697Z,7300
2023-03-22T10:40:23.137Z,8000
2023-03-22T10:41:24.148Z,8000
2023-03-22T10:42:23.624Z,0
2023-03-22T10:43:23.387Z,6500
2023-03-22T10:44:23.916Z,6500
2023-03-22T10:45:24.896Z,6000
2023-03-22T10:46:23.326Z,6000
2023-03-22T10:47:23.549Z,6000
2023-03-22T10:48:23.548Z,5600
2023-03-22T10:49:23.709Z,5400
2023-03-22T10:50:23.690Z,5000
2023-03-22T10:51:23.601Z,4800
2023-03-22T10:52:23.375Z,4750
2023-03-22T10:53:23.740Z,4700
2023-03-22T10:54:25.993Z,4620
2023-03-22T10:55:24.274Z,4500
2023-03-22T10:56:23.498Z,4300
2023-03-22T10:57:23.783Z,4100
2023-03-22T10:58:23.568Z,4030
2023-03-22T10:59:28.652Z,3990
2023-03-22T11:00:26.140Z,3000
2023-03-22T11:01:30.928Z,3400
2023-03-22T11:02:25.191Z,3100
2023-03-22T11:03:24.948Z,2900
2023-03-22T11:04:24.607Z,2800
2023-03-22T11:05:30.786Z,2780
2023-03-22T11:06:23.474Z,2710
2023-03-22T11:07:22.981Z,2670
2023-03-22T11:08:23.353Z,2657
2023-03-22T11:09:23.614Z,2647.
2023-03-22T11:10:24.217Z,2640
2023-03-22T11:11:23.522Z,2646
2023-03-22T11:12:23.602Z,2667
2023-03-22T11:13:23.929Z,2691
2023-03-22T11:14:24.281Z,2696.
2023-03-22T11:15:24.322Z,2692.
2023-03-22T11:16:23.455Z,2683
2023-03-22T11:17:38.141Z,2660
2023-03-22T11:18:23.870Z,2610
2023-03-22T11:19:23.856Z,2550
2023-03-22T11:20:23.401Z,2500
2023-03-22T11:21:38.270Z,2481.
2023-03-22T11:22:23.623Z,2500
2023-03-22T11:23:23.618Z,2550
2023-03-22T11:24:23.518Z,2600
2023-03-22T11:25:42.844Z,2650
2023-03-22T11:27:23.663Z,2730
2023-03-22T11:28:23.706Z,2767
2023-03-22T11:29:22.876Z,2800
2023-03-22T11:30:23.708Z,2840
2023-03-22T11:31:23.728Z,2900
2023-03-22T11:32:23.577Z,2960
2023-03-22T11:33:23.681Z,3030
2023-03-22T11:34:23.661Z,3100
2023-03-22T11:35:23.299Z,3170
2023-03-22T11:36:23.242Z,3229
2023-03-22T11:37:23.468Z,3237
2023-03-22T11:38:23.853Z,3222
2023-03-22T11:39:23.497Z,3200
2023-03-22T11:40:24.385Z,3150
2023-03-22T11:41:23.575Z,3090
2023-03-22T11:42:23.521Z,3030
2023-03-22T11:44:27.197Z,2870
2023-03-22T11:45:24.393Z,2790
2023-03-22T11:46:23.234Z,2720
2023-03-22T11:48:28.111Z,2600
2023-03-22T11:49:23.466Z,2560
2023-03-22T11:50:23.717Z,2540
2023-03-22T11:51:23.945Z,2537.
2023-03-22T11:52:23.150Z,2544.
2023-03-22T11:53:23.466Z,2553
2023-03-22T11:54:24.063Z,2572
2023-03-22T11:55:24.316Z,2600
2023-03-22T11:56:23.709Z,2650
2023-03-22T11:57:23.751Z,2701
2023-03-22T11:58:24.141Z,2716.
2023-03-22T11:59:23.589Z,2714.
2023-03-22T12:00:24.080Z,2720
2023-03-22T12:01:24.003Z,2739
2023-03-22T12:02:24.187Z,2759
2023-03-22T12:03:23.964Z,2776
2023-03-22T12:04:24.452Z,2774
2023-03-22T12:05:23.798Z,2730
2023-03-22T12:06:23.467Z,2670
2023-03-22T12:07:22.845Z,2610
2023-03-22T12:08:23.055Z,2570
2023-03-22T12:09:23.578Z,2556
2023-03-22T12:10:23.743Z,2556
2023-03-22T12:11:23.607Z,2564.
2023-03-22T12:12:23.241Z,2565.
2023-03-22T12:13:24.228Z,2570.
2023-03-22T12:14:24.062Z,2580
2023-03-22T12:15:24.098Z,2650
2023-03-22T12:16:24.944Z,2700
2023-03-22T12:17:23.560Z,2800
2023-03-22T12:18:23.623Z,2900
2023-03-22T12:19:24.189Z,3080
2023-03-22T12:20:24.380Z,3122
2023-03-22T12:21:24.125Z,3122
2023-03-22T12:22:24.637Z,3070
2023-03-22T12:23:23.989Z,2900
2023-03-22T12:24:24.445Z,2800
2023-03-22T12:25:24.265Z,2600
2023-03-22T12:26:23.488Z,2500
2023-03-22T12:27:23.874Z,2300
2023-03-22T12:28:23.645Z,2280
2023-03-22T12:29:24.243Z,2230
2023-03-22T12:30:24.281Z,2199
2023-03-22T12:31:23.797Z,2179.
2023-03-22T12:32:23.660Z,2189
2023-03-22T12:33:24.040Z,2210
2023-03-22T12:34:23.600Z,2220.
2023-03-22T12:35:23.914Z,2222.
2023-03-22T12:36:23.993Z,2217.
2023-03-22T12:37:23.362Z,2204
2023-03-22T12:38:23.656Z,2177
2023-03-22T12:39:24.383Z,2164.
2023-03-22T12:40:23.993Z,2162.
2023-03-22T12:41:23.295Z,2163.
2023-03-22T12:42:23.394Z,2160.
2023-03-22T12:43:23.007Z,2147
2023-03-22T12:44:23.870Z,2122
2023-03-22T12:45:24.132Z,2099
2023-03-22T12:46:23.742Z,2097.
2023-03-22T12:47:24.814Z,2108
2023-03-22T12:48:24.371Z,2125
2023-03-22T12:49:24.324Z,2149
2023-03-22T12:50:24.352Z,2176
2023-03-22T12:51:23.731Z,2200
2023-03-22T12:52:23.327Z,2200
2023-03-22T12:53:23.601Z,2253.
2023-03-22T12:54:24.277Z,2230
2023-03-22T12:55:24.669Z,2170
2023-03-22T12:56:23.957Z,2100
2023-03-22T12:57:24.086Z,2040
2023-03-22T12:58:23.549Z,1990
2023-03-22T12:59:23.490Z,1930
2023-03-22T13:00:25.172Z,1850
2023-03-22T13:01:23.976Z,1802
2023-03-22T13:02:23.521Z,1808
2023-03-22T13:03:23.783Z,1870
2023-03-22T13:04:23.520Z,1900
2023-03-22T13:05:24.357Z,2060
2023-03-22T13:06:23.171Z,2140
2023-03-22T13:07:23.286Z,2220
2023-03-22T13:08:23.553Z,2300
2023-03-22T13:09:23.976Z,2430
2023-03-22T13:10:24.043Z,2480
2023-03-22T13:11:23.832Z,2520
2023-03-22T13:12:23.266Z,2554
2023-03-22T13:13:23.327Z,2550
2023-03-22T13:14:23.258Z,2535.
2023-03-22T13:15:28.437Z,2529
2023-03-22T13:16:23.209Z,2507
2023-03-22T13:17:23.954Z,2482
2023-03-22T13:18:23.198Z,2459
2023-03-22T13:19:23.497Z,2444
2023-03-22T13:20:24.111Z,2450
2023-03-22T13:21:24.020Z,2464
2023-03-22T13:22:29.152Z,2500
2023-03-22T13:23:23.476Z,2535
2023-03-22T13:24:23.520Z,2536.
2023-03-22T13:25:23.830Z,2510
2023-03-22T13:26:28.839Z,2497.
2023-03-22T13:27:23.855Z,2460
2023-03-22T13:28:31.609Z,2423
2023-03-22T13:29:23.897Z,2360
2023-03-22T13:30:23.866Z,2200
2023-03-22T13:31:23.997Z,2100
2023-03-22T13:32:23.724Z,1900
2023-03-22T13:33:23.433Z,1890
2023-03-22T13:34:31.676Z,1850
2023-03-22T13:35:23.967Z,1831
2023-03-22T13:36:24.157Z,1825.
2023-03-22T13:37:23.842Z,1810
2023-03-22T13:38:23.891Z,1750
2023-03-22T13:39:24.352Z,1670
2023-03-22T13:40:23.849Z,1620
2023-03-22T13:41:23.810Z,1540
2023-03-22T13:42:23.501Z,1450
2023-03-22T13:43:23.929Z,1380
2023-03-22T13:44:24.215Z,1368
2023-03-22T13:45:24.420Z,1362
2023-03-22T13:46:23.636Z,1350
2023-03-22T13:47:24.281Z,1330
2023-03-22T13:48:23.638Z,1260
2023-03-22T13:49:22.913Z,1252
2023-03-22T13:50:23.631Z,1280
2023-03-22T13:51:22.947Z,1308
2023-03-22T13:52:23.996Z,1300
2023-03-22T13:53:23.193Z,1390